sensor_id;sensor_type;location;lat;lon;timestamp;P1;durP1;ratioP1;P2;durP2;ratioP2
42246;SDS011;27913;42.722;23.268;2023-03-13T00:03:52;2.38;;;0.93;;
42246;SDS011;27913;42.722;23.268;2023-03-13T00:06:19;3.15;;;1.33;;
42246;SDS011;27913;42.722;23.268;2023-03-13T00:08:45;3.88;;;1.77;;
42246;SDS011;27913;42.722;23.268;2023-03-13T00:11:11;5.30;;;2.00;;
42246;SDS011;27913;42.722;23.268;2023-03-13T00:13:38;5.05;;;2.00;;
42246;SDS011;27913;42.722;23.268;2023-03-13T00:16:05;6.70;;;2.13;;
42246;SDS011;27913;42.722;23.268;2023-03-13T00:18:34;6.45;;;2.47;;
42246;SDS011;27913;42.722;23.268;2023-03-13T00:21:01;5.68;;;1.95;;
42246;SDS011;27913;42.722;23.268;2023-03-13T00:23:31;5.65;;;1.45;;
42246;SDS011;27913;42.722;23.268;2023-03-13T00:25:59;5.15;;;2.00;;
42246;SDS011;27913;42.722;23.268;2023-03-13T00:28:29;4.75;;;2.08;;
42246;SDS011;27913;42.722;23.268;2023-03-13T00:31:00;6.07;;;2.20;;
42246;SDS011;27913;42.722;23.268;2023-03-13T00:33:30;3.67;;;1.63;;
42246;SDS011;27913;42.722;23.268;2023-03-13T00:36:02;5.97;;;2.70;;
42246;SDS011;27913;42.722;23.268;2023-03-13T00:38:30;4.28;;;1.20;;
42246;SDS011;27913;42.722;23.268;2023-03-13T00:41:06;5.13;;;2.17;;
42246;SDS011;27913;42.722;23.268;2023-03-13T00:43:36;7.70;;;2.25;;
42246;SDS011;27913;42.722;23.268;2023-03-13T00:46:01;5.65;;;1.67;;
42246;SDS011;27913;42.722;23.268;2023-03-13T00:48:26;6.30;;;1.90;;
42246;SDS011;27913;42.722;23.268;2023-03-13T00:50:52;7.35;;;2.28;;
42246;SDS011;27913;42.722;23.268;2023-03-13T00:53:18;4.60;;;1.88;;
42246;SDS011;27913;42.722;23.268;2023-03-13T00:56:05;5.07;;;1.85;;
42246;SDS011;27913;42.722;23.268;2023-03-13T00:58:35;3.30;;;1.27;;
42246;SDS011;27913;42.722;23.268;2023-03-13T01:01:06;4.68;;;1.88;;
42246;SDS011;27913;42.722;23.268;2023-03-13T01:03:33;3.85;;;1.67;;
42246;SDS011;27913;42.722;23.268;2023-03-13T01:06:00;3.95;;;1.77;;
42246;SDS011;27913;42.722;23.268;2023-03-13T01:08:27;5.25;;;1.75;;
42246;SDS011;27913;42.722;23.268;2023-03-13T01:10:58;3.58;;;1.30;;
42246;SDS011;27913;42.722;23.268;2023-03-13T01:13:29;5.68;;;2.05;;
42246;SDS011;27913;42.722;23.268;2023-03-13T01:15:57;3.97;;;1.48;;
42246;SDS011;27913;42.722;23.268;2023-03-13T01:18:26;4.32;;;1.50;;
42246;SDS011;27913;42.722;23.268;2023-03-13T01:20:51;6.55;;;1.92;;
42246;SDS011;27913;42.722;23.268;2023-03-13T01:23:17;6.40;;;2.10;;
42246;SDS011;27913;42.722;23.268;2023-03-13T01:25:42;4.88;;;2.00;;
42246;SDS011;27913;42.722;23.268;2023-03-13T01:28:08;4.65;;;1.80;;
42246;SDS011;27913;42.722;23.268;2023-03-13T01:30:33;3.90;;;1.27;;
42246;SDS011;27913;42.722;23.268;2023-03-13T01:32:59;4.35;;;1.67;;
42246;SDS011;27913;42.722;23.268;2023-03-13T01:35:26;6.05;;;2.03;;
42246;SDS011;27913;42.722;23.268;2023-03-13T01:37:51;4.53;;;1.42;;
42246;SDS011;27913;42.722;23.268;2023-03-13T01:40:17;4.90;;;1.90;;
42246;SDS011;27913;42.722;23.268;2023-03-13T01:42:52;3.83;;;1.20;;
42246;SDS011;27913;42.722;23.268;2023-03-13T01:48:44;1.92;;;1.02;;
42246;SDS011;27913;42.722;23.268;2023-03-13T01:51:33;5.57;;;2.13;;
42246;SDS011;27913;42.722;23.268;2023-03-13T01:56:30;4.07;;;1.50;;
42246;SDS011;27913;42.722;23.268;2023-03-13T01:59:18;5.35;;;1.88;;
42246;SDS011;27913;42.722;23.268;2023-03-13T02:04:15;5.55;;;1.80;;
42246;SDS011;27913;42.722;23.268;2023-03-13T02:06:43;4.18;;;1.75;;
42246;SDS011;27913;42.722;23.268;2023-03-13T02:09:17;4.88;;;2.00;;
42246;SDS011;27913;42.722;23.268;2023-03-13T02:11:48;7.10;;;2.50;;
42246;SDS011;27913;42.722;23.268;2023-03-13T02:14:20;5.55;;;2.03;;
42246;SDS011;27913;42.722;23.268;2023-03-13T02:16:51;4.05;;;1.95;;
42246;SDS011;27913;42.722;23.268;2023-03-13T02:19:29;8.82;;;2.95;;
42246;SDS011;27913;42.722;23.268;2023-03-13T02:27:56;10.10;;;3.20;;
42246;SDS011;27913;42.722;23.268;2023-03-13T02:30:25;7.90;;;3.30;;
42246;SDS011;27913;42.722;23.268;2023-03-13T02:32:52;19.65;;;7.05;;
42246;SDS011;27913;42.722;23.268;2023-03-13T02:35:18;10.55;;;4.00;;
42246;SDS011;27913;42.722;23.268;2023-03-13T02:37:47;12.48;;;4.63;;
42246;SDS011;27913;42.722;23.268;2023-03-13T02:40:17;7.03;;;3.00;;
42246;SDS011;27913;42.722;23.268;2023-03-13T02:42:48;6.60;;;2.63;;
42246;SDS011;27913;42.722;23.268;2023-03-13T02:45:16;6.40;;;2.08;;
42246;SDS011;27913;42.722;23.268;2023-03-13T02:47:42;7.43;;;2.15;;
42246;SDS011;27913;42.722;23.268;2023-03-13T02:50:08;9.25;;;3.42;;
42246;SDS011;27913;42.722;23.268;2023-03-13T02:52:45;10.95;;;3.63;;
42246;SDS011;27913;42.722;23.268;2023-03-13T02:55:30;10.10;;;3.05;;
42246;SDS011;27913;42.722;23.268;2023-03-13T02:57:59;5.90;;;2.60;;
42246;SDS011;27913;42.722;23.268;2023-03-13T03:00:24;6.45;;;2.55;;
42246;SDS011;27913;42.722;23.268;2023-03-13T03:02:51;8.13;;;2.92;;
42246;SDS011;27913;42.722;23.268;2023-03-13T03:05:18;7.00;;;2.38;;
42246;SDS011;27913;42.722;23.268;2023-03-13T03:07:44;8.65;;;2.85;;
42246;SDS011;27913;42.722;23.268;2023-03-13T03:10:09;5.20;;;2.10;;
42246;SDS011;27913;42.722;23.268;2023-03-13T03:12:35;10.65;;;2.85;;
42246;SDS011;27913;42.722;23.268;2023-03-13T03:15:01;5.85;;;2.22;;
42246;SDS011;27913;42.722;23.268;2023-03-13T03:17:28;8.55;;;2.67;;
42246;SDS011;27913;42.722;23.268;2023-03-13T03:19:54;4.45;;;2.05;;
42246;SDS011;27913;42.722;23.268;2023-03-13T03:22:20;3.88;;;1.55;;
42246;SDS011;27913;42.722;23.268;2023-03-13T03:24:46;12.93;;;4.47;;
42246;SDS011;27913;42.722;23.268;2023-03-13T03:27:11;6.82;;;2.78;;
42246;SDS011;27913;42.722;23.268;2023-03-13T03:29:36;5.43;;;2.47;;
42246;SDS011;27913;42.722;23.268;2023-03-13T03:32:02;6.68;;;2.05;;
42246;SDS011;27913;42.722;23.268;2023-03-13T03:34:27;6.35;;;2.17;;
42246;SDS011;27913;42.722;23.268;2023-03-13T03:36:53;8.05;;;1.80;;
42246;SDS011;27913;42.722;23.268;2023-03-13T03:39:19;3.90;;;1.35;;
42246;SDS011;27913;42.722;23.268;2023-03-13T03:41:44;4.20;;;1.98;;
42246;SDS011;27913;42.722;23.268;2023-03-13T03:44:10;3.47;;;1.25;;
42246;SDS011;27913;42.722;23.268;2023-03-13T03:46:35;6.80;;;2.47;;
42246;SDS011;27913;42.722;23.268;2023-03-13T03:49:01;6.45;;;2.58;;
42246;SDS011;27913;42.722;23.268;2023-03-13T03:51:26;5.82;;;1.88;;
42246;SDS011;27913;42.722;23.268;2023-03-13T03:53:52;7.80;;;2.55;;
42246;SDS011;27913;42.722;23.268;2023-03-13T03:56:18;7.95;;;2.25;;
42246;SDS011;27913;42.722;23.268;2023-03-13T03:58:44;6.68;;;2.60;;
42246;SDS011;27913;42.722;23.268;2023-03-13T04:01:09;6.43;;;2.30;;
42246;SDS011;27913;42.722;23.268;2023-03-13T04:03:35;6.35;;;2.65;;
42246;SDS011;27913;42.722;23.268;2023-03-13T04:06:00;8.25;;;3.55;;
42246;SDS011;27913;42.722;23.268;2023-03-13T04:08:26;8.80;;;3.35;;
42246;SDS011;27913;42.722;23.268;2023-03-13T04:10:51;5.45;;;2.13;;
42246;SDS011;27913;42.722;23.268;2023-03-13T04:13:17;6.57;;;2.47;;
42246;SDS011;27913;42.722;23.268;2023-03-13T04:15:43;10.65;;;4.20;;
42246;SDS011;27913;42.722;23.268;2023-03-13T04:18:08;5.45;;;2.97;;
42246;SDS011;27913;42.722;23.268;2023-03-13T04:20:34;8.88;;;3.08;;
42246;SDS011;27913;42.722;23.268;2023-03-13T04:23:00;14.15;;;5.00;;
42246;SDS011;27913;42.722;23.268;2023-03-13T04:25:26;17.00;;;7.28;;
42246;SDS011;27913;42.722;23.268;2023-03-13T04:27:51;16.73;;;6.88;;
42246;SDS011;27913;42.722;23.268;2023-03-13T04:30:17;20.67;;;7.68;;
42246;SDS011;27913;42.722;23.268;2023-03-13T04:32:42;16.13;;;7.07;;
42246;SDS011;27913;42.722;23.268;2023-03-13T04:35:08;23.00;;;7.35;;
42246;SDS011;27913;42.722;23.268;2023-03-13T04:37:34;26.15;;;10.00;;
42246;SDS011;27913;42.722;23.268;2023-03-13T04:39:59;23.50;;;9.20;;
42246;SDS011;27913;42.722;23.268;2023-03-13T04:42:25;19.13;;;7.22;;
42246;SDS011;27913;42.722;23.268;2023-03-13T04:44:51;15.80;;;6.97;;
42246;SDS011;27913;42.722;23.268;2023-03-13T04:47:16;14.00;;;6.68;;
42246;SDS011;27913;42.722;23.268;2023-03-13T04:49:42;14.00;;;6.07;;
42246;SDS011;27913;42.722;23.268;2023-03-13T04:52:07;10.43;;;5.13;;
42246;SDS011;27913;42.722;23.268;2023-03-13T04:54:33;10.57;;;5.15;;
42246;SDS011;27913;42.722;23.268;2023-03-13T04:56:58;17.30;;;6.47;;
42246;SDS011;27913;42.722;23.268;2023-03-13T04:59:24;11.20;;;4.55;;
42246;SDS011;27913;42.722;23.268;2023-03-13T05:01:49;10.40;;;5.32;;
42246;SDS011;27913;42.722;23.268;2023-03-13T05:04:15;9.95;;;4.80;;
42246;SDS011;27913;42.722;23.268;2023-03-13T05:06:41;9.27;;;4.05;;
42246;SDS011;27913;42.722;23.268;2023-03-13T05:09:07;8.00;;;3.45;;
42246;SDS011;27913;42.722;23.268;2023-03-13T05:11:32;5.82;;;2.60;;
42246;SDS011;27913;42.722;23.268;2023-03-13T05:13:58;8.10;;;3.70;;
42246;SDS011;27913;42.722;23.268;2023-03-13T05:16:24;30.92;;;10.65;;
42246;SDS011;27913;42.722;23.268;2023-03-13T05:18:49;30.55;;;12.35;;
42246;SDS011;27913;42.722;23.268;2023-03-13T05:21:15;19.00;;;7.50;;
42246;SDS011;27913;42.722;23.268;2023-03-13T05:23:41;21.38;;;8.15;;
42246;SDS011;27913;42.722;23.268;2023-03-13T05:26:06;18.52;;;7.63;;
42246;SDS011;27913;42.722;23.268;2023-03-13T05:28:32;27.42;;;10.65;;
42246;SDS011;27913;42.722;23.268;2023-03-13T05:30:57;23.38;;;8.63;;
42246;SDS011;27913;42.722;23.268;2023-03-13T05:33:23;22.15;;;9.30;;
42246;SDS011;27913;42.722;23.268;2023-03-13T05:35:48;17.98;;;8.02;;
42246;SDS011;27913;42.722;23.268;2023-03-13T05:38:14;12.13;;;4.80;;
42246;SDS011;27913;42.722;23.268;2023-03-13T05:40:39;11.73;;;4.22;;
42246;SDS011;27913;42.722;23.268;2023-03-13T05:43:05;8.15;;;4.03;;
42246;SDS011;27913;42.722;23.268;2023-03-13T05:45:31;10.00;;;3.88;;
42246;SDS011;27913;42.722;23.268;2023-03-13T05:47:56;8.88;;;3.58;;
42246;SDS011;27913;42.722;23.268;2023-03-13T05:50:23;10.15;;;3.92;;
42246;SDS011;27913;42.722;23.268;2023-03-13T05:52:48;8.07;;;3.47;;
42246;SDS011;27913;42.722;23.268;2023-03-13T05:55:14;13.93;;;4.53;;
42246;SDS011;27913;42.722;23.268;2023-03-13T05:57:42;12.70;;;6.00;;
42246;SDS011;27913;42.722;23.268;2023-03-13T06:00:09;9.68;;;3.00;;
42246;SDS011;27913;42.722;23.268;2023-03-13T06:02:35;11.18;;;4.78;;
42246;SDS011;27913;42.722;23.268;2023-03-13T06:05:01;11.15;;;4.82;;
42246;SDS011;27913;42.722;23.268;2023-03-13T06:07:27;8.43;;;4.22;;
42246;SDS011;27913;42.722;23.268;2023-03-13T06:09:52;8.85;;;4.00;;
42246;SDS011;27913;42.722;23.268;2023-03-13T06:12:18;8.15;;;3.42;;
42246;SDS011;27913;42.722;23.268;2023-03-13T06:14:43;7.38;;;3.53;;
42246;SDS011;27913;42.722;23.268;2023-03-13T06:17:09;9.25;;;3.47;;
42246;SDS011;27913;42.722;23.268;2023-03-13T06:19:34;13.38;;;4.10;;
42246;SDS011;27913;42.722;23.268;2023-03-13T06:21:59;8.25;;;3.35;;
42246;SDS011;27913;42.722;23.268;2023-03-13T06:24:25;11.95;;;4.03;;
42246;SDS011;27913;42.722;23.268;2023-03-13T06:26:50;10.80;;;4.40;;
42246;SDS011;27913;42.722;23.268;2023-03-13T06:29:16;13.45;;;4.82;;
42246;SDS011;27913;42.722;23.268;2023-03-13T06:31:42;9.45;;;3.70;;
42246;SDS011;27913;42.722;23.268;2023-03-13T06:34:09;10.45;;;3.72;;
42246;SDS011;27913;42.722;23.268;2023-03-13T06:36:36;11.35;;;4.60;;
42246;SDS011;27913;42.722;23.268;2023-03-13T06:39:01;7.03;;;3.50;;
42246;SDS011;27913;42.722;23.268;2023-03-13T06:41:27;9.52;;;4.00;;
42246;SDS011;27913;42.722;23.268;2023-03-13T06:43:52;8.77;;;3.75;;
42246;SDS011;27913;42.722;23.268;2023-03-13T06:46:19;9.60;;;4.07;;
42246;SDS011;27913;42.722;23.268;2023-03-13T06:48:46;11.02;;;4.38;;
42246;SDS011;27913;42.722;23.268;2023-03-13T06:51:15;9.00;;;3.70;;
42246;SDS011;27913;42.722;23.268;2023-03-13T06:53:42;11.65;;;4.22;;
42246;SDS011;27913;42.722;23.268;2023-03-13T06:56:08;8.23;;;4.00;;
42246;SDS011;27913;42.722;23.268;2023-03-13T06:58:36;8.43;;;4.03;;
42246;SDS011;27913;42.722;23.268;2023-03-13T07:01:05;11.82;;;5.05;;
42246;SDS011;27913;42.722;23.268;2023-03-13T07:03:32;10.50;;;4.22;;
42246;SDS011;27913;42.722;23.268;2023-03-13T07:05:59;2.80;;;0.93;;
42246;SDS011;27913;42.722;23.268;2023-03-13T07:08:24;12.02;;;4.78;;
42246;SDS011;27913;42.722;23.268;2023-03-13T07:10:50;12.82;;;5.22;;
42246;SDS011;27913;42.722;23.268;2023-03-13T07:13:17;7.90;;;2.95;;
42246;SDS011;27913;42.722;23.268;2023-03-13T07:15:46;7.45;;;3.83;;
42246;SDS011;27913;42.722;23.268;2023-03-13T07:18:12;9.95;;;4.13;;
42246;SDS011;27913;42.722;23.268;2023-03-13T07:20:38;9.93;;;3.83;;
42246;SDS011;27913;42.722;23.268;2023-03-13T07:23:04;9.85;;;3.50;;
42246;SDS011;27913;42.722;23.268;2023-03-13T07:25:29;8.20;;;3.60;;
42246;SDS011;27913;42.722;23.268;2023-03-13T07:27:54;7.30;;;3.47;;
42246;SDS011;27913;42.722;23.268;2023-03-13T07:30:20;7.65;;;3.20;;
42246;SDS011;27913;42.722;23.268;2023-03-13T07:32:46;6.60;;;2.90;;
42246;SDS011;27913;42.722;23.268;2023-03-13T07:35:12;7.13;;;3.05;;
42246;SDS011;27913;42.722;23.268;2023-03-13T07:37:37;9.80;;;3.83;;
42246;SDS011;27913;42.722;23.268;2023-03-13T07:40:03;6.18;;;2.63;;
42246;SDS011;27913;42.722;23.268;2023-03-13T07:42:29;8.05;;;3.22;;
42246;SDS011;27913;42.722;23.268;2023-03-13T07:44:54;6.97;;;3.20;;
42246;SDS011;27913;42.722;23.268;2023-03-13T07:47:20;1.27;;;1.02;;
42246;SDS011;27913;42.722;23.268;2023-03-13T07:49:45;5.80;;;1.73;;
42246;SDS011;27913;42.722;23.268;2023-03-13T07:52:11;8.80;;;3.47;;
42246;SDS011;27913;42.722;23.268;2023-03-13T07:54:36;8.00;;;3.53;;
42246;SDS011;27913;42.722;23.268;2023-03-13T07:57:02;3.70;;;1.95;;
42246;SDS011;27913;42.722;23.268;2023-03-13T07:59:28;8.73;;;3.97;;
42246;SDS011;27913;42.722;23.268;2023-03-13T08:01:53;8.05;;;3.60;;
42246;SDS011;27913;42.722;23.268;2023-03-13T08:04:19;6.75;;;2.95;;
42246;SDS011;27913;42.722;23.268;2023-03-13T08:06:44;7.65;;;2.78;;
42246;SDS011;27913;42.722;23.268;2023-03-13T08:09:10;7.80;;;3.13;;
42246;SDS011;27913;42.722;23.268;2023-03-13T08:11:36;8.55;;;3.20;;
42246;SDS011;27913;42.722;23.268;2023-03-13T08:14:04;10.70;;;3.13;;
42246;SDS011;27913;42.722;23.268;2023-03-13T08:16:31;7.22;;;2.88;;
42246;SDS011;27913;42.722;23.268;2023-03-13T08:18:58;8.00;;;2.35;;
42246;SDS011;27913;42.722;23.268;2023-03-13T08:21:25;6.18;;;2.30;;
42246;SDS011;27913;42.722;23.268;2023-03-13T08:26:22;8.05;;;2.80;;
42246;SDS011;27913;42.722;23.268;2023-03-13T08:28:53;4.13;;;1.67;;
42246;SDS011;27913;42.722;23.268;2023-03-13T08:31:27;4.47;;;2.13;;
42246;SDS011;27913;42.722;23.268;2023-03-13T08:33:54;5.65;;;2.47;;
42246;SDS011;27913;42.722;23.268;2023-03-13T08:36:24;4.47;;;1.48;;
42246;SDS011;27913;42.722;23.268;2023-03-13T08:39:19;1.58;;;0.80;;
42246;SDS011;27913;42.722;23.268;2023-03-13T08:41:44;5.25;;;1.60;;
42246;SDS011;27913;42.722;23.268;2023-03-13T08:44:11;4.93;;;2.00;;
42246;SDS011;27913;42.722;23.268;2023-03-13T08:46:37;5.22;;;1.85;;
42246;SDS011;27913;42.722;23.268;2023-03-13T08:49:04;5.80;;;2.45;;
42246;SDS011;27913;42.722;23.268;2023-03-13T08:51:30;6.22;;;2.60;;
42246;SDS011;27913;42.722;23.268;2023-03-13T08:53:56;7.78;;;3.17;;
42246;SDS011;27913;42.722;23.268;2023-03-13T08:56:23;5.30;;;2.20;;
42246;SDS011;27913;42.722;23.268;2023-03-13T08:58:50;8.50;;;2.78;;
42246;SDS011;27913;42.722;23.268;2023-03-13T09:01:17;7.40;;;3.33;;
42246;SDS011;27913;42.722;23.268;2023-03-13T09:03:43;7.53;;;3.28;;
42246;SDS011;27913;42.722;23.268;2023-03-13T09:06:09;9.18;;;3.28;;
42246;SDS011;27913;42.722;23.268;2023-03-13T09:08:35;5.70;;;2.33;;
42246;SDS011;27913;42.722;23.268;2023-03-13T09:11:02;6.72;;;2.72;;
42246;SDS011;27913;42.722;23.268;2023-03-13T09:13:34;8.43;;;3.28;;
42246;SDS011;27913;42.722;23.268;2023-03-13T09:16:03;7.78;;;3.47;;
42246;SDS011;27913;42.722;23.268;2023-03-13T09:18:31;7.65;;;3.47;;
42246;SDS011;27913;42.722;23.268;2023-03-13T09:20:59;9.57;;;3.97;;
42246;SDS011;27913;42.722;23.268;2023-03-13T09:23:25;7.35;;;3.00;;
42246;SDS011;27913;42.722;23.268;2023-03-13T09:25:52;7.47;;;3.33;;
42246;SDS011;27913;42.722;23.268;2023-03-13T09:28:18;10.85;;;4.13;;
42246;SDS011;27913;42.722;23.268;2023-03-13T09:30:44;7.97;;;3.20;;
42246;SDS011;27913;42.722;23.268;2023-03-13T09:33:09;7.32;;;3.75;;
42246;SDS011;27913;42.722;23.268;2023-03-13T09:35:37;5.78;;;2.83;;
42246;SDS011;27913;42.722;23.268;2023-03-13T09:38:03;7.85;;;3.05;;
42246;SDS011;27913;42.722;23.268;2023-03-13T09:40:29;10.23;;;3.05;;
42246;SDS011;27913;42.722;23.268;2023-03-13T09:43:01;7.47;;;2.90;;
42246;SDS011;27913;42.722;23.268;2023-03-13T09:45:30;6.85;;;3.00;;
42246;SDS011;27913;42.722;23.268;2023-03-13T09:48:01;8.68;;;3.55;;
42246;SDS011;27913;42.722;23.268;2023-03-13T09:53:22;9.63;;;3.22;;
42246;SDS011;27913;42.722;23.268;2023-03-13T09:55:57;9.98;;;3.70;;
42246;SDS011;27913;42.722;23.268;2023-03-13T09:58:23;9.18;;;4.03;;
42246;SDS011;27913;42.722;23.268;2023-03-13T10:03:28;6.15;;;2.75;;
42246;SDS011;27913;42.722;23.268;2023-03-13T10:05:55;7.72;;;3.35;;
42246;SDS011;27913;42.722;23.268;2023-03-13T10:08:24;8.30;;;3.63;;
42246;SDS011;27913;42.722;23.268;2023-03-13T10:11:01;13.25;;;4.07;;
42246;SDS011;27913;42.722;23.268;2023-03-13T10:16:48;8.80;;;3.53;;
42246;SDS011;27913;42.722;23.268;2023-03-13T10:19:00;7.50;;;3.35;;
42246;SDS011;27913;42.722;23.268;2023-03-13T10:21:35;11.95;;;4.13;;
42246;SDS011;27913;42.722;23.268;2023-03-13T10:24:10;8.95;;;3.63;;
42246;SDS011;27913;42.722;23.268;2023-03-13T10:26:49;8.73;;;3.90;;
42246;SDS011;27913;42.722;23.268;2023-03-13T10:29:25;7.55;;;2.83;;
42246;SDS011;27913;42.722;23.268;2023-03-13T10:31:54;12.48;;;4.65;;
42246;SDS011;27913;42.722;23.268;2023-03-13T10:34:22;8.20;;;3.20;;
42246;SDS011;27913;42.722;23.268;2023-03-13T10:36:49;7.28;;;3.63;;
42246;SDS011;27913;42.722;23.268;2023-03-13T10:39:22;9.75;;;3.97;;
42246;SDS011;27913;42.722;23.268;2023-03-13T10:41:50;7.88;;;3.22;;
42246;SDS011;27913;42.722;23.268;2023-03-13T10:44:22;9.38;;;4.05;;
42246;SDS011;27913;42.722;23.268;2023-03-13T10:46:57;12.48;;;2.78;;
42246;SDS011;27913;42.722;23.268;2023-03-13T10:49:25;9.10;;;4.18;;
42246;SDS011;27913;42.722;23.268;2023-03-13T10:51:57;8.07;;;3.63;;
42246;SDS011;27913;42.722;23.268;2023-03-13T10:54:26;8.38;;;3.38;;
42246;SDS011;27913;42.722;23.268;2023-03-13T10:59:50;8.75;;;4.28;;
42246;SDS011;27913;42.722;23.268;2023-03-13T11:02:21;9.10;;;4.13;;
42246;SDS011;27913;42.722;23.268;2023-03-13T11:05:00;12.60;;;4.80;;
42246;SDS011;27913;42.722;23.268;2023-03-13T11:07:29;9.13;;;3.80;;
42246;SDS011;27913;42.722;23.268;2023-03-13T11:12:48;7.63;;;3.95;;
42246;SDS011;27913;42.722;23.268;2023-03-13T11:16:02;9.57;;;4.22;;
42246;SDS011;27913;42.722;23.268;2023-03-13T11:18:22;9.57;;;4.25;;
42246;SDS011;27913;42.722;23.268;2023-03-13T11:20:53;9.65;;;4.50;;
42246;SDS011;27913;42.722;23.268;2023-03-13T11:23:26;11.05;;;4.90;;
42246;SDS011;27913;42.722;23.268;2023-03-13T11:31:27;10.57;;;4.45;;
42246;SDS011;27913;42.722;23.268;2023-03-13T11:39:33;6.93;;;3.22;;
42246;SDS011;27913;42.722;23.268;2023-03-13T11:49:58;10.55;;;3.88;;
42246;SDS011;27913;42.722;23.268;2023-03-13T11:52:40;11.90;;;5.47;;
42246;SDS011;27913;42.722;23.268;2023-03-13T11:57:57;11.75;;;4.38;;
42246;SDS011;27913;42.722;23.268;2023-03-13T12:00:58;10.80;;;3.97;;
42246;SDS011;27913;42.722;23.268;2023-03-13T12:03:33;10.02;;;3.80;;
42246;SDS011;27913;42.722;23.268;2023-03-13T12:06:04;12.75;;;5.10;;
42246;SDS011;27913;42.722;23.268;2023-03-13T12:08:41;9.68;;;4.22;;
42246;SDS011;27913;42.722;23.268;2023-03-13T12:11:30;9.55;;;4.22;;
42246;SDS011;27913;42.722;23.268;2023-03-13T12:14:04;14.35;;;4.93;;
42246;SDS011;27913;42.722;23.268;2023-03-13T12:19:21;10.68;;;4.93;;
42246;SDS011;27913;42.722;23.268;2023-03-13T12:21:52;10.70;;;4.90;;
42246;SDS011;27913;42.722;23.268;2023-03-13T12:24:34;8.15;;;3.65;;
42246;SDS011;27913;42.722;23.268;2023-03-13T12:30:10;15.73;;;4.97;;
42246;SDS011;27913;42.722;23.268;2023-03-13T12:36:17;9.38;;;4.57;;
42246;SDS011;27913;42.722;23.268;2023-03-13T12:39:17;7.53;;;2.40;;
42246;SDS011;27913;42.722;23.268;2023-03-13T12:42:05;11.48;;;4.38;;
42246;SDS011;27913;42.722;23.268;2023-03-13T12:44:33;9.35;;;3.95;;
42246;SDS011;27913;42.722;23.268;2023-03-13T12:47:06;8.18;;;3.80;;
42246;SDS011;27913;42.722;23.268;2023-03-13T12:49:44;9.48;;;3.75;;
42246;SDS011;27913;42.722;23.268;2023-03-13T12:58:20;8.98;;;3.72;;
42246;SDS011;27913;42.722;23.268;2023-03-13T13:01:04;11.05;;;4.78;;
42246;SDS011;27913;42.722;23.268;2023-03-13T13:03:35;16.92;;;5.13;;
42246;SDS011;27913;42.722;23.268;2023-03-13T13:13:58;9.43;;;4.18;;
42246;SDS011;27913;42.722;23.268;2023-03-13T13:16:24;9.50;;;4.05;;
42246;SDS011;27913;42.722;23.268;2023-03-13T13:18:51;10.07;;;3.30;;
42246;SDS011;27913;42.722;23.268;2023-03-13T13:23:42;7.80;;;3.45;;
42246;SDS011;27913;42.722;23.268;2023-03-13T13:28:57;8.57;;;3.90;;
42246;SDS011;27913;42.722;23.268;2023-03-13T13:36:56;7.20;;;3.40;;
42246;SDS011;27913;42.722;23.268;2023-03-13T13:41:55;7.65;;;3.92;;
42246;SDS011;27913;42.722;23.268;2023-03-13T13:44:21;7.70;;;3.67;;
42246;SDS011;27913;42.722;23.268;2023-03-13T13:46:49;7.15;;;3.20;;
42246;SDS011;27913;42.722;23.268;2023-03-13T13:49:18;8.85;;;3.90;;
42246;SDS011;27913;42.722;23.268;2023-03-13T13:52:27;8.17;;;3.20;;
42246;SDS011;27913;42.722;23.268;2023-03-13T13:59:43;7.55;;;3.80;;
42246;SDS011;27913;42.722;23.268;2023-03-13T14:02:15;18.90;;;7.15;;
42246;SDS011;27913;42.722;23.268;2023-03-13T14:04:46;17.15;;;5.53;;
42246;SDS011;27913;42.722;23.268;2023-03-13T14:07:19;9.18;;;3.85;;
42246;SDS011;27913;42.722;23.268;2023-03-13T14:09:52;7.22;;;3.15;;
42246;SDS011;27913;42.722;23.268;2023-03-13T14:12:28;8.43;;;3.13;;
42246;SDS011;27913;42.722;23.268;2023-03-13T14:15:05;7.95;;;2.65;;
42246;SDS011;27913;42.722;23.268;2023-03-13T14:20:15;6.75;;;3.03;;
42246;SDS011;27913;42.722;23.268;2023-03-13T14:22:47;8.15;;;3.38;;
42246;SDS011;27913;42.722;23.268;2023-03-13T14:25:14;6.97;;;2.80;;
42246;SDS011;27913;42.722;23.268;2023-03-13T14:27:44;10.45;;;3.25;;
42246;SDS011;27913;42.722;23.268;2023-03-13T14:30:12;9.70;;;3.90;;
42246;SDS011;27913;42.722;23.268;2023-03-13T14:32:39;9.10;;;3.70;;
42246;SDS011;27913;42.722;23.268;2023-03-13T14:35:06;8.93;;;4.15;;
42246;SDS011;27913;42.722;23.268;2023-03-13T14:37:34;7.78;;;3.72;;
42246;SDS011;27913;42.722;23.268;2023-03-13T14:40:22;8.90;;;3.75;;
42246;SDS011;27913;42.722;23.268;2023-03-13T14:42:58;8.57;;;3.00;;
42246;SDS011;27913;42.722;23.268;2023-03-13T14:45:33;6.15;;;3.10;;
42246;SDS011;27913;42.722;23.268;2023-03-13T14:48:46;8.57;;;3.33;;
42246;SDS011;27913;42.722;23.268;2023-03-13T14:50:49;16.83;;;6.70;;
42246;SDS011;27913;42.722;23.268;2023-03-13T14:53:25;12.13;;;4.50;;
42246;SDS011;27913;42.722;23.268;2023-03-13T14:56:08;10.45;;;5.15;;
42246;SDS011;27913;42.722;23.268;2023-03-13T14:58:44;6.55;;;2.67;;
42246;SDS011;27913;42.722;23.268;2023-03-13T15:01:23;9.45;;;4.55;;
42246;SDS011;27913;42.722;23.268;2023-03-13T15:03:54;6.43;;;2.70;;
42246;SDS011;27913;42.722;23.268;2023-03-13T15:06:23;13.40;;;3.85;;
42246;SDS011;27913;42.722;23.268;2023-03-13T15:11:34;8.50;;;3.03;;
42246;SDS011;27913;42.722;23.268;2023-03-13T15:14:28;7.82;;;3.55;;
42246;SDS011;27913;42.722;23.268;2023-03-13T15:16:56;8.35;;;3.55;;
42246;SDS011;27913;42.722;23.268;2023-03-13T15:19:22;8.40;;;3.40;;
42246;SDS011;27913;42.722;23.268;2023-03-13T15:21:49;8.82;;;4.22;;
42246;SDS011;27913;42.722;23.268;2023-03-13T15:24:16;8.82;;;3.53;;
42246;SDS011;27913;42.722;23.268;2023-03-13T15:26:41;9.05;;;3.75;;
42246;SDS011;27913;42.722;23.268;2023-03-13T15:29:08;11.50;;;4.10;;
42246;SDS011;27913;42.722;23.268;2023-03-13T15:31:36;11.23;;;3.85;;
42246;SDS011;27913;42.722;23.268;2023-03-13T15:34:09;9.50;;;3.92;;
42246;SDS011;27913;42.722;23.268;2023-03-13T15:36:36;20.33;;;6.22;;
42246;SDS011;27913;42.722;23.268;2023-03-13T15:39:05;9.20;;;4.47;;
42246;SDS011;27913;42.722;23.268;2023-03-13T15:41:37;7.45;;;3.20;;
42246;SDS011;27913;42.722;23.268;2023-03-13T15:44:03;8.60;;;3.67;;
42246;SDS011;27913;42.722;23.268;2023-03-13T15:46:28;7.47;;;3.60;;
42246;SDS011;27913;42.722;23.268;2023-03-13T15:48:54;12.35;;;3.95;;
42246;SDS011;27913;42.722;23.268;2023-03-13T15:51:19;8.45;;;3.65;;
42246;SDS011;27913;42.722;23.268;2023-03-13T15:53:45;10.13;;;3.63;;
42246;SDS011;27913;42.722;23.268;2023-03-13T15:56:15;8.45;;;3.55;;
42246;SDS011;27913;42.722;23.268;2023-03-13T15:58:42;10.35;;;5.20;;
42246;SDS011;27913;42.722;23.268;2023-03-13T16:01:10;10.07;;;4.65;;
42246;SDS011;27913;42.722;23.268;2023-03-13T16:03:37;15.48;;;6.03;;
42246;SDS011;27913;42.722;23.268;2023-03-13T16:06:08;14.95;;;5.65;;
42246;SDS011;27913;42.722;23.268;2023-03-13T16:08:39;15.25;;;7.85;;
42246;SDS011;27913;42.722;23.268;2023-03-13T16:11:04;15.93;;;6.97;;
42246;SDS011;27913;42.722;23.268;2023-03-13T16:13:30;15.45;;;6.18;;
42246;SDS011;27913;42.722;23.268;2023-03-13T16:15:56;13.55;;;5.47;;
42246;SDS011;27913;42.722;23.268;2023-03-13T16:18:22;17.73;;;8.98;;
42246;SDS011;27913;42.722;23.268;2023-03-13T16:20:49;24.90;;;7.63;;
42246;SDS011;27913;42.722;23.268;2023-03-13T16:23:16;19.60;;;7.07;;